Time;durP1;ratioP1;P1;durP2;ratioP2;P2;SDS_P1;SDS_P2;PMS_P1;PMS_P2;Temp;Humidity;BMP_temperature;BMP_pressure;BME280_temperature;BME280_humidity;BME280_pressure;Samples;Min_cycle;Max_cycle;Signal;HPM_P1;HPM_P2
2023/03/08 00:00:28;;;;;;;9.85;8.85;;;;;;;4.52;78.62;97137.91;4117894;28;20773;-49
2023/03/08 00:02:30;;;;;;;8.82;7.47;;;;;;;4.51;78.49;97135.41;4117332;28;20614;-48
2023/03/08 00:04:33;;;;;;;7.57;6.93;;;;;;;4.53;78.64;97133.31;4119356;28;20341;-48
2023/03/08 00:06:35;;;;;;;8.27;7.50;;;;;;;4.48;78.61;97139.44;4137254;28;20209;-49
2023/03/08 00:08:37;;;;;;;8.55;7.55;;;;;;;4.43;78.80;97150.22;4125545;28;20570;-48
2023/03/08 00:10:39;;;;;;;8.65;7.82;;;;;;;4.45;78.68;97137.22;4125002;28;20272;-46
2023/03/08 00:12:40;;;;;;;8.50;7.70;;;;;;;4.45;78.98;97131.81;4136249;28;20798;-46
2023/03/08 00:14:42;;;;;;;8.90;8.18;;;;;;;4.46;78.67;97128.03;4123416;28;20349;-48
2023/03/08 00:16:44;;;;;;;9.05;7.63;;;;;;;4.51;78.46;97111.88;4136351;28;20691;-48
2023/03/08 00:18:45;;;;;;;11.10;7.68;;;;;;;4.39;78.83;97107.63;4122273;28;20218;-48
2023/03/08 00:21:07;;;;;;;8.38;7.38;;;;;;;4.38;78.41;97105.97;4134953;28;20300;-48
2023/03/08 00:23:08;;;;;;;8.15;7.45;;;;;;;4.32;78.59;97088.81;4109468;28;20673;-49
2023/03/08 00:25:10;;;;;;;8.05;7.25;;;;;;;4.30;78.54;97095.53;4125802;28;20316;-49
2023/03/08 00:27:12;;;;;;;9.82;8.95;;;;;;;4.28;78.70;97105.81;4118442;28;20306;-48
2023/03/08 00:29:14;;;;;;;8.77;8.07;;;;;;;4.28;78.36;97109.31;4119908;28;20214;-49
2023/03/08 00:31:18;;;;;;;8.30;7.53;;;;;;;4.21;78.91;97108.66;4126164;28;20307;-48
2023/03/08 00:33:20;;;;;;;8.93;8.13;;;;;;;4.22;79.26;97110.31;4116933;28;20210;-48
2023/03/08 00:35:22;;;;;;;8.60;6.78;;;;;;;4.23;78.76;97111.97;4122405;28;21024;-48
2023/03/08 00:37:24;;;;;;;8.07;7.28;;;;;;;4.22;78.67;97121.16;4124962;28;20210;-48
2023/03/08 00:39:26;;;;;;;10.02;7.35;;;;;;;4.21;79.11;97119.47;4122603;28;20214;-48
2023/03/08 00:41:27;;;;;;;8.95;8.10;;;;;;;4.18;79.14;97124.56;4129077;28;20899;-48
2023/03/08 00:43:29;;;;;;;9.00;7.90;;;;;;;4.19;79.22;97121.63;4126893;28;20210;-48
2023/03/08 00:45:31;;;;;;;8.80;7.65;;;;;;;4.15;79.19;97125.88;4129529;28;20747;-48
2023/03/08 00:47:34;;;;;;;9.90;8.25;;;;;;;4.15;78.78;97119.66;4135354;28;20288;-48
2023/03/08 00:49:35;;;;;;;8.73;7.82;;;;;;;4.13;79.12;97110.97;4126197;28;20214;-48
2023/03/08 00:51:37;;;;;;;8.48;7.72;;;;;;;4.13;78.56;97117.19;4120634;28;20328;-48
2023/03/08 00:53:39;;;;;;;9.30;7.68;;;;;;;4.08;78.89;97119.78;4127639;28;20252;-48
2023/03/08 00:55:51;;;;;;;8.82;7.82;;;;;;;4.06;79.30;97116.50;4138189;28;20206;-48
2023/03/08 00:57:52;;;;;;;11.98;8.35;;;;;;;4.06;79.18;97121.94;4137413;28;20210;-48
2023/03/08 00:59:54;;;;;;;9.40;8.13;;;;;;;4.06;79.31;97127.34;4136515;28;20706;-48
2023/03/08 01:01:56;;;;;;;7.50;6.80;;;;;;;4.05;79.53;97120.28;4136857;28;20225;-48
2023/03/08 01:03:58;;;;;;;8.20;7.40;;;;;;;4.05;79.18;97111.34;4127761;28;20643;-48
2023/03/08 01:06:08;;;;;;;8.40;7.60;;;;;;;4.03;79.56;97122.44;4128183;28;20218;-49
2023/03/08 01:08:11;;;;;;;8.70;7.88;;;;;;;4.06;78.96;97111.09;4136933;28;20297;-48
2023/03/08 01:10:12;;;;;;;9.00;7.53;;;;;;;4.00;79.36;97106.66;4127676;28;20221;-48
2023/03/08 01:12:15;;;;;;;11.90;7.68;;;;;;;3.96;79.63;97100.09;4120656;28;20463;-48
2023/03/08 01:14:16;;;;;;;9.30;8.40;;;;;;;3.94;79.87;97094.09;4121484;28;20798;-48
2023/03/08 01:16:22;;;;;;;9.20;8.40;;;;;;;3.93;79.93;97089.75;4127848;28;20210;-49
2023/03/08 01:18:24;;;;;;;9.00;8.20;;;;;;;3.95;79.90;97090.31;4137835;28;20601;-48
2023/03/08 01:20:26;;;;;;;8.85;8.00;;;;;;;3.91;80.00;97091.06;4139171;28;20202;-49
2023/03/08 01:22:27;;;;;;;8.55;7.75;;;;;;;3.86;80.10;97083.69;4126545;28;20313;-48
2023/03/08 01:24:29;;;;;;;8.15;7.38;;;;;;;3.87;80.38;97089.91;4125460;28;20365;-49
2023/03/08 01:26:31;;;;;;;8.75;7.90;;;;;;;3.79;80.19;97083.00;4128146;28;20233;-48
2023/03/08 01:28:33;;;;;;;8.68;7.88;;;;;;;3.78;80.56;97075.97;4136441;28;20756;-50
2023/03/08 01:30:35;;;;;;;8.95;8.10;;;;;;;3.82;80.77;97073.59;4122797;28;20214;-49
2023/03/08 01:32:37;;;;;;;10.55;9.57;;;;;;;3.73;80.77;97083.97;4120413;28;20233;-49
2023/03/08 01:34:38;;;;;;;9.90;8.88;;;;;;;3.69;80.80;97066.59;4119687;28;20257;-48
2023/03/08 01:36:40;;;;;;;9.20;8.40;;;;;;;3.67;80.95;97071.41;4121100;28;20246;-49
2023/03/08 01:38:42;;;;;;;9.23;8.38;;;;;;;3.70;80.80;97073.66;4129749;28;20297;-49
2023/03/08 01:40:44;;;;;;;10.05;7.03;;;;;;;3.65;80.95;97073.56;4123414;28;20711;-47
2023/03/08 01:42:45;;;;;;;8.98;8.18;;;;;;;3.70;81.03;97073.66;4134045;28;20237;-47
2023/03/08 01:45:02;;;;;;;9.35;8.55;;;;;;;3.73;80.68;97066.94;4121617;28;20780;-47
2023/03/08 01:47:03;;;;;;;8.77;8.02;;;;;;;3.69;81.30;97065.78;4104248;28;20263;-49
2023/03/08 01:49:15;;;;;;;10.07;9.10;;;;;;;3.61;81.12;97064.28;4119065;28;20238;-47
2023/03/08 01:51:24;;;;;;;8.82;8.10;;;;;;;3.58;81.71;97070.19;4119027;28;20266;-47
2023/03/08 01:53:26;;;;;;;7.95;7.22;;;;;;;3.62;81.01;97067.81;4120037;28;20737;-47
2023/03/08 01:55:28;;;;;;;8.15;7.40;;;;;;;3.60;81.18;97061.84;4119829;28;20296;-48
2023/03/08 01:57:36;;;;;;;8.63;7.68;;;;;;;3.66;81.61;97050.84;4118419;28;20298;-47
2023/03/08 01:59:38;;;;;;;10.32;9.43;;;;;;;3.70;81.42;97046.63;4132873;28;20309;-47
2023/03/08 02:01:40;;;;;;;10.00;9.10;;;;;;;3.66;81.63;97044.63;4138004;28;20237;-47
2023/03/08 02:03:43;;;;;;;8.80;7.75;;;;;;;3.70;81.46;97040.38;4121389;28;20243;-49
2023/03/08 02:05:45;;;;;;;10.43;8.48;;;;;;;3.63;81.90;97040.53;4135828;28;20235;-47
2023/03/08 02:07:47;;;;;;;10.18;9.27;;;;;;;3.62;81.71;97038.06;4125640;28;20300;-48
2023/03/08 02:09:49;;;;;;;8.07;7.28;;;;;;;3.71;81.31;97026.63;4125006;28;20245;-48
2023/03/08 02:11:51;;;;;;;8.50;7.70;;;;;;;3.63;81.23;97024.31;4137064;28;20233;-47
2023/03/08 02:13:53;;;;;;;9.32;8.52;;;;;;;3.67;81.61;97030.84;4135960;28;21546;-47
2023/03/08 02:15:56;;;;;;;10.20;9.15;;;;;;;3.61;81.75;97031.81;4127706;28;20301;-47
2023/03/08 02:17:58;;;;;;;11.35;8.25;;;;;;;3.60;81.81;97011.25;4126531;28;20274;-47
2023/03/08 02:20:25;;;;;;;8.80;7.97;;;;;;;3.59;81.77;97012.31;4104442;28;20214;-48
2023/03/08 02:22:27;;;;;;;8.82;8.02;;;;;;;3.59;81.76;97011.50;4107735;28;20329;-47
2023/03/08 02:24:29;;;;;;;9.07;8.18;;;;;;;3.62;81.77;97011.84;4119342;28;20218;-48
2023/03/08 02:26:31;;;;;;;9.65;8.73;;;;;;;3.57;81.91;97021.75;4128420;28;20372;-48
2023/03/08 02:28:33;;;;;;;8.50;7.70;;;;;;;3.59;81.73;97009.63;4127930;28;20758;-47
2023/03/08 02:30:36;;;;;;;10.07;8.30;;;;;;;3.57;81.92;97008.22;4127865;28;21531;-47
2023/03/08 02:32:38;;;;;;;8.77;7.72;;;;;;;3.57;82.53;97002.81;4108968;28;20322;-47
2023/03/08 02:34:40;;;;;;;10.10;9.20;;;;;;;3.59;82.28;97000.69;4121666;28;20234;-47
2023/03/08 02:36:42;;;;;;;9.82;8.82;;;;;;;3.60;82.61;97003.16;4119428;28;20207;-47
2023/03/08 02:38:44;;;;;;;10.68;9.73;;;;;;;3.62;82.03;97006.44;4109182;28;20211;-47
2023/03/08 02:40:47;;;;;;;9.38;8.27;;;;;;;3.62;81.84;97003.75;4122490;28;20331;-47
2023/03/08 02:42:48;;;;;;;10.05;9.15;;;;;;;3.63;82.11;96999.13;4132837;28;20320;-47
2023/03/08 02:44:53;;;;;;;8.80;8.00;;;;;;;3.59;81.59;96996.09;4136301;28;20225;-48
2023/03/08 02:46:55;;;;;;;9.77;8.88;;;;;;;3.63;82.21;96991.84;4127976;28;20731;-49
2023/03/08 02:48:56;;;;;;;10.45;9.35;;;;;;;3.63;82.16;96991.84;4136279;28;20297;-47
2023/03/08 02:50:58;;;;;;;11.13;8.88;;;;;;;3.64;81.99;96987.25;4127136;28;20293;-46
2023/03/08 02:53:00;;;;;;;8.35;7.60;;;;;;;3.66;81.96;96993.25;4115827;28;20294;-47
2023/03/08 02:55:01;;;;;;;9.35;8.52;;;;;;;3.63;82.53;96986.44;4120309;28;20654;-48
2023/03/08 02:57:03;;;;;;;13.68;8.15;;;;;;;3.55;82.61;96981.41;4133688;28;20297;-47
2023/03/08 02:59:05;;;;;;;9.60;8.60;;;;;;;3.54;83.08;96979.78;4136786;28;20296;-47
2023/03/08 03:01:11;;;;;;;9.70;8.80;;;;;;;3.60;82.68;96981.50;4124782;28;20202;-48
2023/03/08 03:03:13;;;;;;;10.00;8.45;;;;;;;3.46;83.53;96980.19;4136257;28;20581;-47
2023/03/08 03:05:15;;;;;;;8.50;7.70;;;;;;;3.43;84.04;96980.69;4118043;28;20262;-47
2023/03/08 03:07:16;;;;;;;8.52;7.72;;;;;;;3.41;84.64;96982.78;4119357;28;20225;-47
2023/03/08 03:09:18;;;;;;;9.43;8.10;;;;;;;3.39;85.11;96979.50;4126783;28;20304;-47
2023/03/08 03:11:21;;;;;;;10.10;9.30;;;;;;;3.40;85.23;96977.66;4134566;28;20272;-47
2023/03/08 03:13:23;;;;;;;8.93;8.10;;;;;;;3.38;86.32;96980.59;4135767;28;20252;-47
2023/03/08 03:15:25;;;;;;;11.25;8.50;;;;;;;3.38;86.69;96977.88;4127009;28;20723;-47
2023/03/08 03:17:27;;;;;;;9.95;9.05;;;;;;;3.38;87.00;96972.47;4136448;28;20209;-47
2023/03/08 03:19:28;;;;;;;9.68;8.77;;;;;;;3.37;87.11;96976.25;4121867;28;20237;-47
2023/03/08 03:21:30;;;;;;;9.20;8.27;;;;;;;3.32;87.19;96973.44;4120701;28;20266;-47
2023/03/08 03:23:32;;;;;;;9.40;8.57;;;;;;;3.34;86.93;96962.41;4120068;28;20206;-47
2023/03/08 03:25:37;;;;;;;9.80;8.80;;;;;;;3.29;87.42;96963.13;4109605;28;20339;-47
2023/03/08 03:27:38;;;;;;;9.98;8.45;;;;;;;3.42;87.42;96954.72;4120126;28;20293;-47
2023/03/08 03:29:40;;;;;;;9.07;8.38;;;;;;;3.30;87.59;96948.56;4119818;28;20907;-48
2023/03/08 03:31:42;;;;;;;9.40;8.60;;;;;;;3.27;87.19;96943.63;4127147;28;20226;-47
2023/03/08 03:33:44;;;;;;;11.07;8.65;;;;;;;3.31;87.08;96935.84;4127381;28;20312;-48
2023/03/08 03:35:46;;;;;;;10.32;8.68;;;;;;;3.31;86.64;96938.53;4117046;28;20660;-48
2023/03/08 03:37:47;;;;;;;10.10;9.10;;;;;;;3.29;86.58;96936.09;4116265;28;20750;-49
2023/03/08 03:39:49;;;;;;;9.90;8.90;;;;;;;3.24;86.83;96937.88;4104443;28;20313;-47
2023/03/08 03:41:51;;;;;;;9.05;8.25;;;;;;;3.17;86.64;96940.75;4120566;28;21027;-49
2023/03/08 03:43:52;;;;;;;10.45;9.45;;;;;;;3.15;87.23;96929.34;4119830;28;20371;-49
2023/03/08 03:45:59;;;;;;;7.93;7.10;;;;;;;3.24;86.80;96937.88;4126984;28;20253;-48
2023/03/08 03:48:00;;;;;;;10.10;9.10;;;;;;;3.29;86.27;96929.88;4121119;28;20293;-47
2023/03/08 03:50:02;;;;;;;9.70;8.77;;;;;;;3.27;86.06;96932.81;4134771;28;20260;-48
2023/03/08 03:52:04;;;;;;;9.27;8.27;;;;;;;3.27;85.50;96937.41;4119642;28;20234;-47
2023/03/08 03:54:06;;;;;;;8.38;7.68;;;;;;;3.18;85.58;96934.28;4133843;28;20301;-48
2023/03/08 03:56:19;;;;;;;8.65;7.85;;;;;;;3.25;85.36;96917.88;4120652;28;20234;-48
2023/03/08 03:58:21;;;;;;;8.70;7.90;;;;;;;3.23;85.35;96920.03;4118077;28;20565;-48
2023/03/08 04:00:23;;;;;;;10.80;9.00;;;;;;;3.20;85.33;96924.03;4101612;28;20210;-47
2023/03/08 04:02:24;;;;;;;9.55;8.65;;;;;;;3.18;85.41;96926.16;4121254;28;20320;-47
2023/03/08 04:04:26;;;;;;;9.23;8.43;;;;;;;3.21;85.21;96930.28;4132306;28;20538;-47
2023/03/08 04:06:29;;;;;;;13.20;8.30;;;;;;;3.12;85.53;96927.13;4118904;28;20242;-47
2023/03/08 04:08:31;;;;;;;9.40;8.50;;;;;;;3.19;85.11;96922.41;4120476;28;20261;-47
2023/03/08 04:10:32;;;;;;;10.38;9.38;;;;;;;3.20;84.24;96913.22;4127220;28;20206;-48
2023/03/08 04:12:34;;;;;;;10.18;8.50;;;;;;;3.21;84.22;96909.44;4120839;28;20233;-48
2023/03/08 04:14:36;;;;;;;8.68;7.68;;;;;;;3.21;84.60;96912.16;4111676;28;20247;-47
2023/03/08 04:16:39;;;;;;;9.75;8.80;;;;;;;3.22;84.45;96907.59;4138461;28;20206;-48
2023/03/08 04:18:41;;;;;;;8.32;7.63;;;;;;;3.23;84.42;96904.66;4129417;28;20966;-47
2023/03/08 04:20:44;;;;;;;13.70;8.65;;;;;;;3.27;83.70;96894.97;4135607;28;20220;-48
2023/03/08 04:22:46;;;;;;;9.10;8.20;;;;;;;3.25;84.01;96891.69;4138838;28;20292;-48
2023/03/08 04:24:47;;;;;;;10.10;7.88;;;;;;;3.36;83.83;96890.81;4128903;28;20615;-48
2023/03/08 04:26:49;;;;;;;8.40;7.65;;;;;;;3.35;83.83;96881.03;4121039;28;20214;-47
2023/03/08 04:28:51;;;;;;;10.15;9.15;;;;;;;3.29;83.46;96882.06;4138206;28;20210;-47
2023/03/08 04:30:53;;;;;;;10.13;9.13;;;;;;;3.26;83.70;96877.13;4137814;28;20299;-47
2023/03/08 04:32:54;;;;;;;9.68;8.68;;;;;;;3.38;83.14;96864.34;4130105;28;20616;-47
2023/03/08 04:34:56;;;;;;;9.48;8.60;;;;;;;3.34;82.99;96852.38;4127054;28;20286;-47
2023/03/08 04:36:58;;;;;;;13.07;9.13;;;;;;;3.40;82.88;96851.41;4130875;28;20309;-47
2023/03/08 04:38:59;;;;;;;12.40;9.30;;;;;;;3.37;82.88;96865.44;4128519;28;20293;-47
2023/03/08 04:41:01;;;;;;;8.82;7.93;;;;;;;3.40;83.15;96856.81;4138921;28;20693;-48
2023/03/08 04:43:03;;;;;;;9.73;8.82;;;;;;;3.44;82.43;96857.13;4120971;28;20206;-47
2023/03/08 04:45:05;;;;;;;9.02;8.23;;;;;;;3.38;82.23;96848.13;4122282;28;20325;-48
2023/03/08 04:47:08;;;;;;;9.80;8.88;;;;;;;3.38;82.51;96842.72;4138251;28;20206;-47
2023/03/08 04:49:10;;;;;;;10.70;9.75;;;;;;;3.36;82.23;96844.88;4138466;28;20237;-47
2023/03/08 04:51:14;;;;;;;7.60;6.93;;;;;;;3.42;81.98;96853.88;4120001;28;20246;-48
2023/03/08 04:53:16;;;;;;;12.65;7.32;;;;;;;3.38;82.42;96850.84;4118725;28;20308;-47
2023/03/08 04:55:18;;;;;;;10.75;8.32;;;;;;;3.38;82.28;96845.44;4120507;28;20294;-47
2023/03/08 04:57:19;;;;;;;9.07;7.35;;;;;;;3.42;82.28;96843.91;4137900;28;20212;-47
2023/03/08 04:59:21;;;;;;;9.15;8.25;;;;;;;3.41;81.82;96831.41;4119835;28;20210;-47
2023/03/08 05:01:23;;;;;;;8.40;7.63;;;;;;;3.43;82.22;96829.31;4108355;28;20242;-49
2023/03/08 05:03:25;;;;;;;9.63;7.55;;;;;;;3.43;81.91;96833.88;4109463;28;20811;-49
2023/03/08 05:05:27;;;;;;;9.55;8.13;;;;;;;3.39;82.49;96830.03;4124297;28;20718;-48
2023/03/08 05:07:28;;;;;;;8.35;7.65;;;;;;;3.41;81.00;96825.22;4119222;28;20222;-48
2023/03/08 05:09:30;;;;;;;10.02;8.57;;;;;;;3.45;81.26;96832.56;4137039;28;20213;-49
2023/03/08 05:11:32;;;;;;;9.20;8.07;;;;;;;3.41;81.17;96828.72;4108658;28;20270;-49
2023/03/08 05:13:36;;;;;;;9.30;8.50;;;;;;;3.47;81.51;96825.03;4120096;28;20237;-48
2023/03/08 05:15:38;;;;;;;7.38;6.68;;;;;;;3.48;81.01;96821.25;4136311;28;20293;-49
2023/03/08 05:17:39;;;;;;;10.05;9.20;;;;;;;3.47;81.59;96814.22;4137458;28;20202;-49
2023/03/08 05:19:41;;;;;;;9.27;7.47;;;;;;;3.43;81.42;96796.88;4136273;28;20293;-50
2023/03/08 05:21:43;;;;;;;8.65;7.85;;;;;;;3.50;81.08;96792.13;4123149;28;21068;-50
2023/03/08 05:23:45;;;;;;;10.50;8.70;;;;;;;3.45;80.91;96805.53;4120586;28;20225;-49
2023/03/08 05:25:51;;;;;;;11.18;8.95;;;;;;;3.49;80.92;96805.88;4136714;28;20229;-49
2023/03/08 05:27:52;;;;;;;10.13;8.05;;;;;;;3.55;79.73;96797.56;4119329;28;20214;-48
2023/03/08 05:29:54;;;;;;;8.70;7.85;;;;;;;3.56;80.37;96791.13;4119922;28;20441;-48
2023/03/08 05:31:57;;;;;;;9.38;8.38;;;;;;;3.57;80.73;96792.75;4101675;28;20321;-49
2023/03/08 05:33:59;;;;;;;8.57;7.75;;;;;;;3.59;80.03;96779.81;4124468;28;20214;-48
2023/03/08 05:36:01;;;;;;;11.30;8.88;;;;;;;3.49;80.60;96774.25;4109744;28;20341;-49
2023/03/08 05:38:02;;;;;;;9.95;7.90;;;;;;;3.50;80.76;96775.06;4106110;28;21091;-49
2023/03/08 05:40:05;;;;;;;9.18;8.35;;;;;;;3.53;80.67;96769.97;4124100;28;21459;-49
2023/03/08 05:42:07;;;;;;;12.63;9.38;;;;;;;3.56;79.96;96769.50;4120966;28;20229;-49
2023/03/08 05:44:08;;;;;;;9.38;8.57;;;;;;;3.51;80.50;96761.31;4127078;28;20214;-49
2023/03/08 05:46:16;;;;;;;8.25;7.45;;;;;;;3.51;80.27;96750.50;4135736;28;20225;-48
2023/03/08 05:48:17;;;;;;;9.13;8.20;;;;;;;3.55;80.30;96745.41;4137107;28;20289;-48
2023/03/08 05:50:19;;;;;;;9.60;8.65;;;;;;;3.58;80.44;96740.31;4134594;28;20859;-53
2023/03/08 05:52:21;;;;;;;10.00;9.10;;;;;;;3.58;80.83;96728.66;4124404;28;20634;-49
2023/03/08 05:54:22;;;;;;;8.82;8.02;;;;;;;3.62;80.07;96719.84;4125624;28;20222;-48
2023/03/08 05:56:24;;;;;;;8.65;7.70;;;;;;;3.62;80.12;96727.94;4117688;28;21084;-48
2023/03/08 05:58:26;;;;;;;10.48;9.38;;;;;;;3.60;80.43;96732.75;4121195;28;20306;-49
2023/03/08 06:00:27;;;;;;;9.02;8.23;;;;;;;3.59;80.83;96725.72;4118345;28;20384;-49
2023/03/08 06:02:29;;;;;;;9.13;7.97;;;;;;;3.61;80.72;96718.16;4115038;28;20603;-48
2023/03/08 06:04:31;;;;;;;10.00;9.02;;;;;;;3.58;80.99;96715.97;4136932;28;20247;-50
2023/03/08 06:06:33;;;;;;;10.38;9.48;;;;;;;3.54;81.29;96704.03;4124648;28;20707;-48
2023/03/08 06:08:35;;;;;;;11.52;9.77;;;;;;;3.61;81.04;96707.34;4123034;28;20211;-48
2023/03/08 06:10:47;;;;;;;9.45;8.45;;;;;;;3.55;80.94;96702.94;4125896;28;20213;-48
2023/03/08 06:12:49;;;;;;;9.85;8.75;;;;;;;3.59;81.34;96714.91;4137547;28;20228;-48
2023/03/08 06:14:51;;;;;;;10.02;9.13;;;;;;;3.62;81.29;96725.25;4108938;28;20751;-48
2023/03/08 06:16:53;;;;;;;10.05;8.60;;;;;;;3.61;81.34;96718.16;4124696;28;20206;-49
2023/03/08 06:18:55;;;;;;;9.70;8.82;;;;;;;3.60;81.38;96721.94;4103356;28;20665;-48
2023/03/08 06:21:02;;;;;;;10.43;9.43;;;;;;;3.68;81.94;96718.81;4112898;28;20687;-48
2023/03/08 06:23:04;;;;;;;11.00;9.75;;;;;;;3.65;81.97;96724.72;4138132;28;20197;-49
2023/03/08 06:25:07;;;;;;;9.10;8.20;;;;;;;3.61;81.87;96729.00;4137840;28;20213;-48
2023/03/08 06:27:09;;;;;;;11.10;10.07;;;;;;;3.62;83.72;96722.53;4132987;28;20260;-49
2023/03/08 06:29:12;;;;;;;10.27;9.27;;;;;;;3.57;85.54;96722.47;4134815;28;21502;-49
2023/03/08 06:31:16;;;;;;;9.73;8.73;;;;;;;3.62;86.45;96713.59;4118902;28;20258;-49
2023/03/08 06:33:20;;;;;;;11.73;8.32;;;;;;;3.61;86.83;96715.47;4137102;28;20213;-47
2023/03/08 06:35:21;;;;;;;9.93;9.13;;;;;;;3.57;87.40;96718.94;4137175;28;20217;-47
2023/03/08 06:37:23;;;;;;;8.27;7.53;;;;;;;3.48;88.83;96723.94;4138600;28;20710;-48
2023/03/08 06:39:29;;;;;;;10.35;8.55;;;;;;;3.50;89.95;96727.22;4116721;28;20248;-47
2023/03/08 06:41:34;;;;;;;10.63;9.70;;;;;;;3.34;93.22;96717.25;4102678;28;20513;-47
2023/03/08 06:43:36;;;;;;;9.75;8.70;;;;;;;3.23;95.50;96715.50;4130563;28;20213;-47
2023/03/08 06:45:38;;;;;;;10.20;9.30;;;;;;;3.21;97.38;96714.91;4118856;28;20260;-47
2023/03/08 06:47:40;;;;;;;10.05;9.15;;;;;;;3.12;98.75;96713.69;4135728;28;20213;-47
2023/03/08 06:49:42;;;;;;;10.50;8.75;;;;;;;3.05;100.00;96707.66;4135621;28;20292;-48
2023/03/08 06:51:45;;;;;;;11.40;10.27;;;;;;;3.04;100.00;96707.88;4119425;28;20869;-48
2023/03/08 06:53:47;;;;;;;10.38;9.02;;;;;;;3.03;100.00;96698.97;4136181;28;20214;-48
2023/03/08 06:55:49;;;;;;;11.23;9.70;;;;;;;2.95;100.00;96702.06;4123255;28;20760;-48
2023/03/08 06:57:55;;;;;;;11.85;9.73;;;;;;;2.97;100.00;96694.56;4137810;28;20216;-50
2023/03/08 06:59:56;;;;;;;10.25;9.20;;;;;;;2.99;100.00;96687.03;4134959;28;20786;-50
2023/03/08 07:01:58;;;;;;;12.13;10.32;;;;;;;2.91;100.00;96682.06;4103600;28;20617;-49
2023/03/08 07:04:00;;;;;;;12.25;11.10;;;;;;;2.87;100.00;96678.19;4125387;28;20241;-49
2023/03/08 07:06:04;;;;;;;12.23;11.00;;;;;;;2.52;100.00;96674.94;4121510;28;20603;-50
2023/03/08 07:08:06;;;;;;;11.02;10.02;;;;;;;2.44;100.00;96667.25;4119786;28;20680;-49
2023/03/08 07:10:15;;;;;;;9.48;8.57;;;;;;;2.52;100.00;96658.75;4137912;28;21016;-51
2023/03/08 07:12:19;;;;;;;10.98;9.82;;;;;;;2.52;100.00;96658.75;4103894;28;20223;-48
2023/03/08 07:14:21;;;;;;;9.88;8.95;;;;;;;2.41;100.00;96656.94;4135570;28;20225;-49
2023/03/08 07:16:23;;;;;;;12.98;10.90;;;;;;;2.32;100.00;96650.31;4134865;28;20210;-48
2023/03/08 07:18:25;;;;;;;14.15;11.52;;;;;;;2.20;100.00;96638.75;4124331;28;20289;-49
2023/03/08 07:20:30;;;;;;;11.50;10.50;;;;;;;2.24;100.00;96628.31;4134095;28;20452;-49
2023/03/08 07:22:32;;;;;;;12.30;11.20;;;;;;;1.95;100.00;96630.22;4118809;28;20696;-50
2023/03/08 07:24:33;;;;;;;13.82;10.30;;;;;;;1.93;100.00;96629.66;4117378;28;20217;-50
2023/03/08 07:26:35;;;;;;;14.93;9.75;;;;;;;1.97;100.00;96622.72;4116795;28;20319;-48
2023/03/08 07:28:37;;;;;;;12.38;10.90;;;;;;;1.89;100.00;96625.78;4114672;28;20325;-49
2023/03/08 07:30:39;;;;;;;11.18;10.18;;;;;;;1.89;100.00;96615.00;4119973;28;20688;-49
2023/03/08 07:32:41;;;;;;;11.98;10.23;;;;;;;2.04;100.00;96612.59;4117835;28;20309;-49
2023/03/08 07:34:49;;;;;;;12.23;11.02;;;;;;;1.71;100.00;96612.53;4127973;28;20667;-51
2023/03/08 07:36:51;;;;;;;11.20;10.15;;;;;;;1.73;100.00;96615.00;4124635;28;20213;-49
2023/03/08 07:38:53;;;;;;;11.80;10.80;;;;;;;1.73;100.00;96605.03;4119050;28;20214;-49
2023/03/08 07:40:55;;;;;;;10.57;9.57;;;;;;;1.61;100.00;96596.16;4138952;28;20245;-48
2023/03/08 07:43:01;;;;;;;11.55;10.48;;;;;;;1.58;100.00;96591.28;4110041;28;20700;-48
2023/03/08 07:45:03;;;;;;;13.40;11.95;;;;;;;1.48;100.00;96591.06;4120572;28;20226;-48
2023/03/08 07:47:06;;;;;;;12.15;10.95;;;;;;;1.50;100.00;96580.88;4123123;28;20222;-49
2023/03/08 07:49:09;;;;;;;12.15;11.00;;;;;;;1.54;100.00;96590.09;4138818;28;20263;-49
2023/03/08 07:51:14;;;;;;;12.25;11.20;;;;;;;1.62;100.00;96586.22;4139453;28;20707;-49
2023/03/08 07:53:16;;;;;;;11.43;10.32;;;;;;;1.65;100.00;96574.94;4138401;28;20244;-49
2023/03/08 07:55:18;;;;;;;13.48;12.02;;;;;;;1.66;100.00;96568.50;4122707;28;20288;-49
2023/03/08 07:57:19;;;;;;;15.70;11.50;;;;;;;1.72;100.00;96567.53;4123389;28;20206;-49
2023/03/08 07:59:22;;;;;;;13.30;10.77;;;;;;;1.71;100.00;96552.41;4140566;28;20259;-49
2023/03/08 08:01:26;;;;;;;13.98;12.68;;;;;;;1.76;100.00;96544.44;4138033;28;20718;-49
2023/03/08 08:03:28;;;;;;;13.30;11.95;;;;;;;1.72;100.00;96543.25;4130568;28;20210;-50
2023/03/08 08:05:31;;;;;;;12.00;10.95;;;;;;;1.88;100.00;96543.28;4122322;28;21158;-50
2023/03/08 08:07:34;;;;;;;14.80;13.30;;;;;;;1.87;100.00;96536.25;4139315;28;20249;-50
2023/03/08 08:09:36;;;;;;;14.98;11.15;;;;;;;1.89;100.00;96531.44;4141340;28;20217;-50
2023/03/08 08:11:38;;;;;;;21.45;12.30;;;;;;;1.82;100.00;96524.59;4129574;28;20226;-50
2023/03/08 08:13:40;;;;;;;14.20;12.82;;;;;;;1.81;100.00;96523.75;4115433;28;20276;-50
2023/03/08 08:15:41;;;;;;;14.35;13.05;;;;;;;1.94;100.00;96528.81;4139680;28;20210;-50
2023/03/08 08:17:43;;;;;;;13.70;12.38;;;;;;;1.80;100.00;96522.13;4125204;28;20233;-50
2023/03/08 08:19:45;;;;;;;14.23;12.90;;;;;;;1.99;100.00;96518.13;4124592;28;20787;-49
2023/03/08 08:21:46;;;;;;;12.02;10.55;;;;;;;1.91;100.00;96510.47;4135589;28;21109;-50
2023/03/08 08:23:48;;;;;;;16.83;10.07;;;;;;;1.92;100.00;96500.47;4124385;28;20640;-50
2023/03/08 08:25:50;;;;;;;12.27;11.15;;;;;;;1.95;100.00;96500.81;4137090;28;20206;-50
2023/03/08 08:27:52;;;;;;;15.00;11.45;;;;;;;1.89;100.00;96500.97;4119448;28;20241;-51
2023/03/08 08:29:54;;;;;;;14.13;12.73;;;;;;;1.99;100.00;96491.16;4125398;28;20210;-49
2023/03/08 08:31:56;;;;;;;14.32;11.73;;;;;;;2.12;100.00;96490.00;4139655;28;20317;-51
2023/03/08 08:33:58;;;;;;;13.73;10.52;;;;;;;2.28;100.00;96479.19;4129278;28;20214;-50
2023/03/08 08:36:06;;;;;;;13.30;12.15;;;;;;;2.18;100.00;96480.94;4139692;28;20221;-51
2023/03/08 08:38:08;;;;;;;11.90;10.70;;;;;;;2.17;100.00;96488.22;4122027;28;20211;-50
2023/03/08 08:40:11;;;;;;;15.70;11.32;;;;;;;1.87;100.00;96476.16;4119965;28;20214;-51
2023/03/08 08:42:12;;;;;;;13.10;11.90;;;;;;;1.92;100.00;96484.31;4123798;28;20230;-50
2023/03/08 08:44:14;;;;;;;13.02;11.55;;;;;;;2.05;100.00;96484.78;4134352;28;20213;-49
2023/03/08 08:46:16;;;;;;;12.63;11.32;;;;;;;1.91;100.00;96486.19;4138644;28;20222;-50
2023/03/08 08:48:18;;;;;;;11.75;10.77;;;;;;;1.84;100.00;96477.47;4127863;28;20278;-51
2023/03/08 08:50:20;;;;;;;10.93;9.82;;;;;;;1.81;100.00;96477.94;4121446;28;20206;-49
2023/03/08 08:52:22;;;;;;;11.88;10.70;;;;;;;1.88;100.00;96491.25;4120507;28;20671;-49
2023/03/08 08:54:24;;;;;;;11.90;10.82;;;;;;;1.84;100.00;96477.47;4137023;28;20213;-50
2023/03/08 08:56:27;;;;;;;9.07;8.25;;;;;;;1.91;100.00;96475.41;4127082;28;20206;-49
2023/03/08 08:58:29;;;;;;;14.80;9.75;;;;;;;1.84;100.00;96474.75;4118069;28;20725;-49
2023/03/08 09:00:32;;;;;;;10.80;9.80;;;;;;;1.93;100.00;96465.19;4125847;28;20213;-50
2023/03/08 09:02:34;;;;;;;9.38;8.55;;;;;;;1.93;100.00;96465.19;4125925;28;20854;-49
2023/03/08 09:04:36;;;;;;;9.82;8.82;;;;;;;1.90;100.00;96457.59;4127312;28;20210;-49
2023/03/08 09:06:38;;;;;;;9.05;8.32;;;;;;;1.93;100.00;96451.72;4126596;28;20766;-48
2023/03/08 09:08:42;;;;;;;9.25;8.45;;;;;;;1.84;100.00;96450.50;4117699;28;20697;-49
2023/03/08 09:10:44;;;;;;;8.43;7.65;;;;;;;1.90;100.00;96436.03;4121222;28;20214;-49
2023/03/08 09:12:46;;;;;;;9.27;8.38;;;;;;;1.97;100.00;96436.69;4118535;28;20704;-49
2023/03/08 09:14:47;;;;;;;10.23;9.13;;;;;;;2.12;100.00;96419.88;4120681;28;20257;-49
2023/03/08 09:16:51;;;;;;;7.65;6.95;;;;;;;2.07;100.00;96427.94;4108254;28;20209;-49
2023/03/08 09:18:55;;;;;;;8.13;7.50;;;;;;;2.07;100.00;96423.34;4126102;28;20665;-48
2023/03/08 09:20:56;;;;;;;8.13;6.45;;;;;;;2.09;100.00;96421.22;4126365;28;20220;-48
2023/03/08 09:22:58;;;;;;;7.85;7.15;;;;;;;2.09;100.00;96421.22;4134953;28;20228;-48
2023/03/08 09:25:00;;;;;;;9.00;8.23;;;;;;;2.09;100.00;96415.84;4126510;28;20214;-48
2023/03/08 09:27:04;;;;;;;10.18;9.27;;;;;;;2.09;100.00;96407.75;4124703;28;20230;-49
2023/03/08 09:29:06;;;;;;;15.13;13.23;;;;;;;2.15;100.00;96420.19;4123861;28;20626;-50
2023/03/08 09:31:11;;;;;;;10.32;9.27;;;;;;;2.29;100.00;96407.19;4139129;28;20300;-49
2023/03/08 09:33:13;;;;;;;9.52;8.63;;;;;;;2.23;100.00;96411.72;4100529;28;20310;-49
2023/03/08 09:35:15;;;;;;;7.15;6.45;;;;;;;2.42;100.00;96407.63;4137474;28;20638;-49
2023/03/08 09:37:17;;;;;;;7.18;6.57;;;;;;;2.33;100.00;96384.84;4120025;28;20209;-49